Time;durP1;ratioP1;P1;durP2;ratioP2;P2;SDS_P1;SDS_P2;PMS_P1;PMS_P2;Temp;Humidity;BMP_temperature;BMP_pressure;BME280_temperature;BME280_humidity;BME280_pressure;Samples;Min_cycle;Max_cycle;Signal;HPM_P1;HPM_P2
2021/03/14 00:03:24;;;;;;;28.63;13.40;;;;;;;;;;8304945;28;20067;-73
2021/03/14 00:07:29;;;;;;;28.83;14.07;;;;;;;;;;8323108;28;20459;-72
2021/03/14 00:11:33;;;;;;;20.98;9.27;;;;;;;;;;8322069;28;20386;-72
2021/03/14 00:15:38;;;;;;;31.38;14.25;;;;;;;;;;8323415;28;20055;-73
2021/03/14 00:19:44;;;;;;;22.38;8.93;;;;;;;;;;8322849;28;20083;-73
2021/03/14 00:23:49;;;;;;;24.52;10.45;;;;;;;;;;8326080;28;20455;-73
2021/03/14 00:27:54;;;;;;;20.30;9.52;;;;;;;;;;8329811;28;20055;-72
2021/03/14 00:31:58;;;;;;;23.30;9.65;;;;;;;;;;8310751;28;20482;-72
2021/03/14 00:36:05;;;;;;;15.38;8.63;;;;;;;;;;8329160;28;20481;-73
2021/03/14 00:40:10;;;;;;;23.42;11.57;;;;;;;;;;8326808;28;20086;-72
2021/03/14 00:44:14;;;;;;;15.98;7.40;;;;;;;;;;8328050;28;20443;-73
2021/03/14 00:48:19;;;;;;;14.40;5.60;;;;;;;;;;8329849;28;20462;-73
2021/03/14 00:52:24;;;;;;;11.10;5.22;;;;;;;;;;8328631;28;20474;-73
2021/03/14 00:56:31;;;;;;;13.07;6.13;;;;;;;;;;8326770;28;20370;-72
2021/03/14 01:00:41;;;;;;;15.05;6.88;;;;;;;;;;8326529;28;20474;-71
2021/03/14 01:04:45;;;;;;;11.80;5.95;;;;;;;;;;8293115;28;20049;-71
2021/03/14 01:08:51;;;;;;;9.85;5.45;;;;;;;;;;8292534;28;20435;-72
2021/03/14 01:12:56;;;;;;;14.25;7.22;;;;;;;;;;8308525;28;20112;-71
2021/03/14 01:17:03;;;;;;;14.23;7.32;;;;;;;;;;8277024;28;20397;-72
2021/03/14 01:21:10;;;;;;;19.60;8.00;;;;;;;;;;8310780;28;20479;-71
2021/03/14 01:25:14;;;;;;;14.57;5.72;;;;;;;;;;8292504;28;20463;-72
2021/03/14 01:29:19;;;;;;;7.35;3.10;;;;;;;;;;8293705;28;20493;-72
2021/03/14 01:33:24;;;;;;;11.63;5.00;;;;;;;;;;8293814;28;20506;-71
2021/03/14 01:37:28;;;;;;;12.73;4.45;;;;;;;;;;8292130;28;20490;-71
2021/03/14 01:41:34;;;;;;;7.38;3.95;;;;;;;;;;8293200;28;20495;-72
2021/03/14 01:45:39;;;;;;;9.25;4.35;;;;;;;;;;8293263;28;20052;-71
2021/03/14 01:49:44;;;;;;;10.10;3.55;;;;;;;;;;8292496;28;20462;-71
2021/03/14 01:53:49;;;;;;;10.98;4.55;;;;;;;;;;8292935;28;20375;-71
2021/03/14 01:57:54;;;;;;;6.00;2.58;;;;;;;;;;8293027;28;20375;-70
2021/03/14 02:01:58;;;;;;;7.07;3.80;;;;;;;;;;8291823;28;20384;-71
2021/03/14 02:06:03;;;;;;;6.05;2.22;;;;;;;;;;8294594;28;20378;-70
2021/03/14 02:10:12;;;;;;;7.95;2.72;;;;;;;;;;8298016;28;20405;-71
2021/03/14 02:14:17;;;;;;;9.27;2.87;;;;;;;;;;8324100;28;20344;-71
2021/03/14 02:18:24;;;;;;;7.85;3.42;;;;;;;;;;8308630;28;20809;-70
2021/03/14 02:22:29;;;;;;;6.57;2.22;;;;;;;;;;8307396;28;20378;-71
2021/03/14 02:26:33;;;;;;;5.70;2.40;;;;;;;;;;8307147;28;20455;-72
2021/03/14 02:30:38;;;;;;;6.60;2.95;;;;;;;;;;8323205;28;20393;-71
2021/03/14 02:34:48;;;;;;;4.90;2.55;;;;;;;;;;8308029;28;20462;-71
2021/03/14 02:38:53;;;;;;;7.80;2.97;;;;;;;;;;8326477;28;20366;-70
2021/03/14 02:42:59;;;;;;;6.65;2.65;;;;;;;;;;8325654;28;20489;-71
2021/03/14 02:47:05;;;;;;;13.32;2.30;;;;;;;;;;8305332;28;20482;-71
2021/03/14 02:51:12;;;;;;;5.60;2.63;;;;;;;;;;8324202;28;20474;-71
2021/03/14 02:55:23;;;;;;;5.35;2.78;;;;;;;;;;8306998;28;20351;-71
2021/03/14 02:59:28;;;;;;;4.40;2.35;;;;;;;;;;8305391;28;20451;-71
2021/03/14 03:03:32;;;;;;;2.72;1.50;;;;;;;;;;8323960;28;20367;-70
2021/03/14 03:07:38;;;;;;;3.55;1.80;;;;;;;;;;8306585;28;20055;-70
2021/03/14 03:11:44;;;;;;;4.53;1.90;;;;;;;;;;8323587;28;20056;-71
2021/03/14 03:15:50;;;;;;;4.03;1.73;;;;;;;;;;8323696;28;20060;-70
2021/03/14 03:19:55;;;;;;;6.72;2.30;;;;;;;;;;8306641;28;20475;-70
2021/03/14 03:24:01;;;;;;;3.88;2.22;;;;;;;;;;8323283;28;20382;-70
2021/03/14 03:28:07;;;;;;;4.20;1.90;;;;;;;;;;8305866;28;20047;-71
2021/03/14 03:32:11;;;;;;;7.55;3.00;;;;;;;;;;8323159;28;20389;-71
2021/03/14 03:36:16;;;;;;;12.05;4.18;;;;;;;;;;8307044;28;20469;-71
2021/03/14 03:40:26;;;;;;;4.57;2.20;;;;;;;;;;8324889;28;20511;-70
2021/03/14 03:44:35;;;;;;;11.48;4.10;;;;;;;;;;8323836;28;20355;-71
2021/03/14 03:48:49;;;;;;;5.65;2.78;;;;;;;;;;8305155;28;20458;-70
2021/03/14 03:52:56;;;;;;;7.35;2.58;;;;;;;;;;8305778;28;20075;-71
2021/03/14 03:57:02;;;;;;;5.55;2.00;;;;;;;;;;8305557;28;20055;-70
2021/03/14 04:01:10;;;;;;;5.47;2.25;;;;;;;;;;8310342;28;20070;-70
2021/03/14 04:05:16;;;;;;;7.90;3.70;;;;;;;;;;8311706;28;20474;-70
2021/03/14 04:09:22;;;;;;;7.07;2.85;;;;;;;;;;8311998;28;20059;-71
2021/03/14 04:13:28;;;;;;;2.58;1.67;;;;;;;;;;8294307;28;20363;-70
2021/03/14 04:17:34;;;;;;;4.65;2.08;;;;;;;;;;8295000;28;20371;-71
2021/03/14 04:21:39;;;;;;;3.15;2.17;;;;;;;;;;8296051;28;20486;-71
2021/03/14 04:25:45;;;;;;;4.93;2.40;;;;;;;;;;8293536;28;20363;-71
2021/03/14 04:29:51;;;;;;;3.97;2.25;;;;;;;;;;8294142;28;20479;-70
2021/03/14 04:33:56;;;;;;;4.60;2.00;;;;;;;;;;8295522;28;20390;-70
2021/03/14 04:38:02;;;;;;;7.35;2.28;;;;;;;;;;8294789;28;20049;-70
2021/03/14 04:42:07;;;;;;;5.47;1.95;;;;;;;;;;8296260;28;20362;-71
2021/03/14 04:46:14;;;;;;;3.92;2.03;;;;;;;;;;8293843;28;20356;-71
2021/03/14 04:50:28;;;;;;;4.25;2.25;;;;;;;;;;8294361;28;20402;-70
2021/03/14 04:54:34;;;;;;;5.05;2.03;;;;;;;;;;8293530;28;20478;-70
2021/03/14 04:58:39;;;;;;;6.95;1.75;;;;;;;;;;8294374;28;20052;-70
2021/03/14 05:02:47;;;;;;;3.53;2.17;;;;;;;;;;8294498;28;20395;-71
2021/03/14 05:06:52;;;;;;;7.80;3.10;;;;;;;;;;8296981;28;20386;-70
2021/03/14 05:10:56;;;;;;;5.10;2.47;;;;;;;;;;8301103;28;20398;-70
2021/03/14 05:15:02;;;;;;;5.00;2.10;;;;;;;;;;8309891;28;20388;-70
2021/03/14 05:19:08;;;;;;;6.20;2.55;;;;;;;;;;8326749;28;20114;-71
2021/03/14 05:23:33;;;;;;;6.07;2.50;;;;;;;;;;8311944;28;20078;-71
2021/03/14 05:27:38;;;;;;;18.73;11.25;;;;;;;;;;8326935;28;20052;-70
2021/03/14 05:31:42;;;;;;;25.73;11.80;;;;;;;;;;8309279;28;20447;-70
2021/03/14 05:35:47;;;;;;;13.00;6.32;;;;;;;;;;8292413;28;20044;-70
2021/03/14 05:39:52;;;;;;;41.40;17.23;;;;;;;;;;8327466;28;20463;-70
2021/03/14 05:43:57;;;;;;;43.55;19.20;;;;;;;;;;8326785;28;20462;-71
2021/03/14 05:48:02;;;;;;;22.38;10.00;;;;;;;;;;8307713;28;20489;-70
2021/03/14 05:52:10;;;;;;;40.17;17.60;;;;;;;;;;8326496;28;20345;-70
2021/03/14 05:56:14;;;;;;;9.85;5.47;;;;;;;;;;8309138;28;20044;-70
2021/03/14 06:00:28;;;;;;;6.28;3.90;;;;;;;;;;8326147;28;20394;-71
2021/03/14 06:04:34;;;;;;;9.13;3.88;;;;;;;;;;8326128;28;20048;-71
2021/03/14 06:08:39;;;;;;;9.32;3.15;;;;;;;;;;8325978;28;20421;-71
2021/03/14 06:12:45;;;;;;;4.25;2.65;;;;;;;;;;8327402;28;20354;-71
2021/03/14 06:16:49;;;;;;;8.52;2.85;;;;;;;;;;8309076;28;20067;-70
2021/03/14 06:20:54;;;;;;;17.80;9.02;;;;;;;;;;8325145;28;20359;-70
2021/03/14 06:24:58;;;;;;;6.45;2.65;;;;;;;;;;8327180;28;20374;-70
2021/03/14 06:29:18;;;;;;;6.25;3.03;;;;;;;;;;8307486;28;20381;-70
2021/03/14 06:33:22;;;;;;;5.63;2.95;;;;;;;;;;8325003;28;20478;-70
2021/03/14 06:37:26;;;;;;;5.50;2.38;;;;;;;;;;8324908;28;20369;-70
2021/03/14 06:41:37;;;;;;;6.78;2.65;;;;;;;;;;8306412;28;20459;-71
2021/03/14 06:45:44;;;;;;;6.72;2.50;;;;;;;;;;8324579;28;20413;-71
2021/03/14 06:49:49;;;;;;;7.30;3.25;;;;;;;;;;8307242;28;20453;-71
2021/03/14 06:53:54;;;;;;;9.35;3.55;;;;;;;;;;8324214;28;20482;-70
2021/03/14 06:58:27;;;;;;;5.18;2.42;;;;;;;;;;8325002;28;20394;-70
2021/03/14 07:02:32;;;;;;;9.45;3.65;;;;;;;;;;8323188;28;20466;-70
2021/03/14 07:06:36;;;;;;;6.53;2.55;;;;;;;;;;8307600;28;20421;-70
2021/03/14 07:10:41;;;;;;;7.18;3.58;;;;;;;;;;8306255;28;20394;-70
2021/03/14 07:14:48;;;;;;;10.45;5.75;;;;;;;;;;8306331;28;20496;-70
2021/03/14 07:18:54;;;;;;;9.68;3.20;;;;;;;;;;8306554;28;20074;-70
2021/03/14 07:23:06;;;;;;;8.82;4.18;;;;;;;;;;8323720;28;20381;-71
2021/03/14 07:27:18;;;;;;;9.77;4.45;;;;;;;;;;8323708;28;20074;-70
2021/03/14 07:31:23;;;;;;;6.93;3.15;;;;;;;;;;8323507;28;20386;-71
2021/03/14 07:35:27;;;;;;;6.80;3.17;;;;;;;;;;8305751;28;20532;-70
2021/03/14 07:39:32;;;;;;;6.18;2.72;;;;;;;;;;8305499;28;20496;-71
2021/03/14 07:43:36;;;;;;;5.82;2.33;;;;;;;;;;8323260;28;20375;-70
2021/03/14 07:47:42;;;;;;;7.55;3.17;;;;;;;;;;8325402;28;20397;-71
2021/03/14 07:51:55;;;;;;;6.32;2.83;;;;;;;;;;8324058;28;20074;-71
2021/03/14 07:56:00;;;;;;;5.93;2.33;;;;;;;;;;8322715;28;20425;-70
2021/03/14 08:00:33;;;;;;;9.98;4.93;;;;;;;;;;8325725;28;20466;-71
2021/03/14 08:04:39;;;;;;;11.00;3.53;;;;;;;;;;8323414;28;20160;-70
2021/03/14 08:08:45;;;;;;;23.30;9.77;;;;;;;;;;8322857;28;20424;-70
2021/03/14 08:12:49;;;;;;;11.20;5.20;;;;;;;;;;8304950;28;20074;-71
2021/03/14 08:17:36;;;;;;;13.18;6.93;;;;;;;;;;8291851;28;20398;-71
2021/03/14 08:21:42;;;;;;;7.88;5.00;;;;;;;;;;8304814;28;20470;-71
2021/03/14 08:25:54;;;;;;;7.30;4.25;;;;;;;;;;8289187;28;20444;-71
2021/03/14 08:29:58;;;;;;;5.45;1.60;;;;;;;;;;8290892;28;20474;-71
2021/03/14 08:34:05;;;;;;;6.95;2.58;;;;;;;;;;8304501;28;20119;-71
2021/03/14 08:38:34;;;;;;;4.43;2.45;;;;;;;;;;8305972;28;20053;-72
2021/03/14 08:42:55;;;;;;;5.40;2.13;;;;;;;;;;8306207;28;20053;-71
2021/03/14 08:47:27;;;;;;;4.55;2.10;;;;;;;;;;8293333;28;20473;-71
2021/03/14 08:51:52;;;;;;;6.35;3.15;;;;;;;;;;8294476;28;20455;-71
2021/03/14 08:56:16;;;;;;;6.18;2.70;;;;;;;;;;8294760;28;20436;-71
2021/03/14 09:00:26;;;;;;;9.82;3.05;;;;;;;;;;8294538;28;20367;-70
2021/03/14 09:04:37;;;;;;;9.40;3.80;;;;;;;;;;8309753;28;20455;-71
2021/03/14 09:09:09;;;;;;;10.30;3.70;;;;;;;;;;8310489;28;20467;-70
2021/03/14 09:13:30;;;;;;;12.23;4.45;;;;;;;;;;8308731;28;20485;-71
2021/03/14 09:17:46;;;;;;;12.48;5.70;;;;;;;;;;8309654;28;20474;-71
2021/03/14 09:22:25;;;;;;;12.38;4.72;;;;;;;;;;8308105;28;20387;-70
2021/03/14 09:26:43;;;;;;;8.85;3.38;;;;;;;;;;8309401;28;20053;-70
2021/03/14 09:30:54;;;;;;;12.48;3.85;;;;;;;;;;8311162;28;20478;-71
2021/03/14 09:35:31;;;;;;;10.07;3.80;;;;;;;;;;8294091;28;20386;-70
2021/03/14 09:39:46;;;;;;;9.18;4.80;;;;;;;;;;8308887;28;20044;-70
2021/03/14 09:44:17;;;;;;;14.18;4.97;;;;;;;;;;8309459;28;20343;-69
2021/03/14 09:48:36;;;;;;;;;;;;;;;;;;8308885;28;20452;-70
2021/03/14 09:52:42;;;;;;;19.77;8.32;;;;;;;;;;8293495;28;20243;-70
2021/03/14 09:57:02;;;;;;;15.48;6.50;;;;;;;;;;8292707;28;20435;-70
2021/03/14 10:01:18;;;;;;;9.85;3.75;;;;;;;;;;8294708;28;20394;-70
2021/03/14 10:05:27;;;;;;;6.00;2.90;;;;;;;;;;8307448;28;20463;-70
2021/03/14 10:09:32;;;;;;;8.27;2.85;;;;;;;;;;8292133;28;20458;-70
2021/03/14 10:13:53;;;;;;;10.73;3.22;;;;;;;;;;8307799;28;20071;-71
2021/03/14 10:18:00;;;;;;;;;;;;;;;;;;8309339;28;20458;-70
2021/03/14 10:22:05;;;;;;;11.30;4.97;;;;;;;;;;8275526;28;20343;-70
2021/03/14 10:27:05;;;;;;;8.68;4.60;;;;;;;;;;8292069;28;20451;-70
2021/03/14 10:31:16;;;;;;;10.48;5.55;;;;;;;;;;8289873;28;20375;-71
2021/03/14 10:35:25;;;;;;;27.98;13.90;;;;;;;;;;8289972;28;20378;-70
2021/03/14 10:39:37;;;;;;;10.23;5.13;;;;;;;;;;8289793;28;20473;-70
2021/03/14 10:43:49;;;;;;;18.10;7.30;;;;;;;;;;8307391;28;20487;-69
2021/03/14 10:48:03;;;;;;;12.73;5.47;;;;;;;;;;8307737;28;20479;-70
2021/03/14 10:52:13;;;;;;;19.05;8.13;;;;;;;;;;8291237;28;20463;-69
2021/03/14 10:56:34;;;;;;;17.33;9.00;;;;;;;;;;8306353;28;20410;-71
2021/03/14 11:00:49;;;;;;;16.17;7.32;;;;;;;;;;8291804;28;20363;-70
2021/03/14 11:05:07;;;;;;;19.73;8.85;;;;;;;;;;8272428;28;20044;-71
2021/03/14 11:09:19;;;;;;;23.45;7.22;;;;;;;;;;8305122;28;20078;-71
2021/03/14 11:13:31;;;;;;;14.75;4.45;;;;;;;;;;8305590;28;20079;-69
2021/03/14 11:18:03;;;;;;;7.55;3.03;;;;;;;;;;8288835;28;20520;-69
2021/03/14 11:22:35;;;;;;;7.45;3.47;;;;;;;;;;8305315;28;20370;-69
2021/03/14 11:26:40;;;;;;;26.63;11.43;;;;;;;;;;8306627;28;20479;-71
2021/03/14 11:30:45;;;;;;;61.92;22.55;;;;;;;;;;8305295;28;20379;-69
2021/03/14 11:34:50;;;;;;;59.42;21.30;;;;;;;;;;8289116;28;20300;-70
2021/03/14 11:39:15;;;;;;;92.85;30.77;;;;;;;;;;8290893;28;20072;-69
2021/03/14 11:43:41;;;;;;;19.48;7.20;;;;;;;;;;8290632;28;20459;-69
2021/03/14 11:48:06;;;;;;;237.05;70.50;;;;;;;;;;8291838;28;20375;-69
2021/03/14 11:52:11;;;;;;;54.60;17.90;;;;;;;;;;8291781;28;20390;-70
2021/03/14 11:56:19;;;;;;;37.58;13.52;;;;;;;;;;8306444;28;20045;-68
2021/03/14 12:00:28;;;;;;;14.20;5.90;;;;;;;;;;8288909;28;20060;-70
2021/03/14 12:04:34;;;;;;;150.32;48.53;;;;;;;;;;8290735;28;20367;-71
2021/03/14 12:08:39;;;;;;;11.50;5.70;;;;;;;;;;8288479;28;20482;-70
2021/03/14 12:12:44;;;;;;;117.78;35.78;;;;;;;;;;8287643;28;20360;-70
2021/03/14 12:16:55;;;;;;;18.70;7.13;;;;;;;;;;8289485;28;20467;-71
2021/03/14 12:21:09;;;;;;;31.02;12.15;;;;;;;;;;8308567;28;20479;-69
2021/03/14 12:25:20;;;;;;;174.68;47.88;;;;;;;;;;8310647;28;20079;-70
2021/03/14 12:29:25;;;;;;;155.85;47.10;;;;;;;;;;8296247;28;20057;-70
2021/03/14 12:33:35;;;;;;;6.30;2.25;;;;;;;;;;8294019;28;20352;-71
2021/03/14 12:37:40;;;;;;;37.42;13.25;;;;;;;;;;8295513;28;20382;-70
2021/03/14 12:41:59;;;;;;;11.20;5.00;;;;;;;;;;8319615;27;20634;-71
2021/03/14 12:46:03;;;;;;;14.90;6.93;;;;;;;;;;8283803;28;20487;-70
2021/03/14 12:50:09;;;;;;;79.35;29.10;;;;;;;;;;8284049;28;20092;-70
2021/03/14 12:54:16;;;;;;;85.20;29.10;;;;;;;;;;8300564;28;20490;-69
2021/03/14 12:58:21;;;;;;;37.35;15.07;;;;;;;;;;8283924;28;20432;-70
2021/03/14 13:02:31;;;;;;;15.65;6.22;;;;;;;;;;8283962;28;20456;-70
2021/03/14 13:06:37;;;;;;;15.90;6.75;;;;;;;;;;8300610;28;20365;-70
2021/03/14 13:10:41;;;;;;;35.90;14.95;;;;;;;;;;8284900;28;20459;-69
2021/03/14 13:14:46;;;;;;;4.90;2.58;;;;;;;;;;8298755;28;20451;-70
2021/03/14 13:18:50;;;;;;;7.43;3.13;;;;;;;;;;8283072;28;20368;-70
2021/03/14 13:22:55;;;;;;;9.55;4.45;;;;;;;;;;8283673;28;20098;-70
2021/03/14 13:26:59;;;;;;;13.02;5.82;;;;;;;;;;8298660;28;20482;-70
2021/03/14 13:31:04;;;;;;;7.00;2.80;;;;;;;;;;8284309;28;20052;-70
2021/03/14 13:35:09;;;;;;;11.98;5.18;;;;;;;;;;8299112;28;20400;-70
2021/03/14 13:39:23;;;;;;;8.38;2.95;;;;;;;;;;8283112;28;20052;-70
2021/03/14 13:43:28;;;;;;;8.27;4.28;;;;;;;;;;8284397;28;20800;-70
2021/03/14 13:47:32;;;;;;;4.70;2.58;;;;;;;;;;8283412;28;20376;-69
2021/03/14 13:51:37;;;;;;;6.72;2.47;;;;;;;;;;8286144;28;20092;-70
2021/03/14 13:55:57;;;;;;;6.25;2.08;;;;;;;;;;8262434;28;20074;-70
2021/03/14 14:00:04;;;;;;;7.03;3.97;;;;;;;;;;8277153;28;20419;-69
2021/03/14 14:04:15;;;;;;;16.15;7.28;;;;;;;;;;8263313;28;20383;-70
2021/03/14 14:08:20;;;;;;;7.22;2.83;;;;;;;;;;8275655;28;20392;-70
2021/03/14 14:12:24;;;;;;;6.28;3.70;;;;;;;;;;8263154;28;20395;-71
2021/03/14 14:16:35;;;;;;;9.93;4.93;;;;;;;;;;8264110;28;20064;-70
2021/03/14 14:20:42;;;;;;;4.50;2.42;;;;;;;;;;8277340;28;20053;-70
2021/03/14 14:24:46;;;;;;;9.60;2.90;;;;;;;;;;8261253;28;20356;-70
2021/03/14 14:28:53;;;;;;;4.97;2.13;;;;;;;;;;8278055;28;20506;-70
2021/03/14 14:32:58;;;;;;;9.10;3.22;;;;;;;;;;8260969;28;20399;-70
2021/03/14 14:37:03;;;;;;;6.90;3.40;;;;;;;;;;8275273;28;20414;-70
2021/03/14 14:41:08;;;;;;;9.10;4.15;;;;;;;;;;8260362;28;20479;-70
2021/03/14 14:45:12;;;;;;;5.60;3.00;;;;;;;;;;8275677;28;20353;-69
2021/03/14 14:49:17;;;;;;;7.55;2.78;;;;;;;;;;8262236;28;20489;-70
2021/03/14 14:53:22;;;;;;;5.70;2.78;;;;;;;;;;8273942;28;20483;-71
2021/03/14 14:57:28;;;;;;;23.02;9.02;;;;;;;;;;8259879;28;20468;-70
2021/03/14 15:01:32;;;;;;;27.52;9.50;;;;;;;;;;8259710;28;20360;-70
2021/03/14 15:05:37;;;;;;;9.57;4.15;;;;;;;;;;8259769;28;20075;-70
2021/03/14 15:09:42;;;;;;;12.98;5.45;;;;;;;;;;8259869;28;20076;-69
2021/03/14 15:13:47;;;;;;;10.23;4.15;;;;;;;;;;8274855;28;20379;-71
2021/03/14 15:17:51;;;;;;;6.07;2.83;;;;;;;;;;8259520;28;20414;-71
2021/03/14 15:21:58;;;;;;;14.68;6.13;;;;;;;;;;8258637;28;20459;-68
2021/03/14 15:26:04;;;;;;;8.15;2.65;;;;;;;;;;8262169;28;20057;-70
2021/03/14 15:30:12;;;;;;;6.95;3.38;;;;;;;;;;8258662;28;20052;-70
2021/03/14 15:34:17;;;;;;;10.05;4.90;;;;;;;;;;8273770;28;20436;-70
2021/03/14 15:38:24;;;;;;;12.70;4.97;;;;;;;;;;8257080;28;20452;-70
2021/03/14 15:42:27;;;;;;;8.13;3.80;;;;;;;;;;8258760;28;20056;-70
2021/03/14 15:46:32;;;;;;;10.18;5.22;;;;;;;;;;8259002;28;20053;-70
2021/03/14 15:50:38;;;;;;;7.78;3.63;;;;;;;;;;8258429;28;20371;-70
2021/03/14 15:54:42;;;;;;;10.10;4.32;;;;;;;;;;8257646;28;20489;-70
2021/03/14 15:58:48;;;;;;;11.20;4.70;;;;;;;;;;8259371;28;20349;-71
2021/03/14 16:02:53;;;;;;;12.40;5.82;;;;;;;;;;8258519;28;20049;-70
2021/03/14 16:06:58;;;;;;;22.02;9.77;;;;;;;;;;8257852;28;20391;-70
2021/03/14 16:11:02;;;;;;;27.42;10.88;;;;;;;;;;8259503;28;20460;-70
2021/03/14 16:15:08;;;;;;;30.55;16.67;;;;;;;;;;8258792;28;20573;-69
2021/03/14 16:19:12;;;;;;;14.15;7.18;;;;;;;;;;8257867;28;20452;-70
2021/03/14 16:23:17;;;;;;;10.73;4.68;;;;;;;;;;8257418;28;20456;-70
2021/03/14 16:27:21;;;;;;;11.43;4.60;;;;;;;;;;8257728;28;20363;-70
2021/03/14 16:31:39;;;;;;;9.90;4.55;;;;;;;;;;8271975;28;20451;-70
2021/03/14 16:35:43;;;;;;;14.23;5.78;;;;;;;;;;8257499;28;20067;-69
2021/03/14 16:39:51;;;;;;;16.08;6.32;;;;;;;;;;8257301;28;20075;-70
2021/03/14 16:43:56;;;;;;;16.00;6.95;;;;;;;;;;8257533;28;20045;-70
2021/03/14 16:48:07;;;;;;;25.75;10.60;;;;;;;;;;8258757;28;20448;-71
2021/03/14 16:52:14;;;;;;;39.70;13.30;;;;;;;;;;8256585;28;20057;-69
2021/03/14 16:56:18;;;;;;;44.67;18.48;;;;;;;;;;8258237;28;20351;-70
2021/03/14 17:00:24;;;;;;;48.20;15.13;;;;;;;;;;8257029;28;20392;-70
2021/03/14 17:04:31;;;;;;;28.10;10.57;;;;;;;;;;8257800;28;20479;-71
2021/03/14 17:08:38;;;;;;;41.37;16.23;;;;;;;;;;8257747;28;20395;-70
2021/03/14 17:12:42;;;;;;;69.15;23.77;;;;;;;;;;8257917;28;20372;-70
2021/03/14 17:16:47;;;;;;;16.70;6.85;;;;;;;;;;8255997;28;20480;-71
2021/03/14 17:20:52;;;;;;;57.75;17.52;;;;;;;;;;8256310;28;20379;-70
2021/03/14 17:24:55;;;;;;;39.10;12.70;;;;;;;;;;8247182;28;20500;-70
2021/03/14 17:29:01;;;;;;;21.77;8.18;;;;;;;;;;8229497;28;20077;-70
2021/03/14 17:33:06;;;;;;;23.58;9.40;;;;;;;;;;8228031;28;20460;-70
2021/03/14 17:37:10;;;;;;;20.48;8.43;;;;;;;;;;8227971;28;20411;-70
2021/03/14 17:41:14;;;;;;;33.25;11.68;;;;;;;;;;8227263;28;20379;-70
2021/03/14 17:45:19;;;;;;;20.42;8.15;;;;;;;;;;8254987;28;20345;-70
2021/03/14 17:49:22;;;;;;;27.38;10.45;;;;;;;;;;8254483;28;20079;-71
2021/03/14 17:53:27;;;;;;;29.15;10.77;;;;;;;;;;8259403;28;20440;-70
2021/03/14 17:57:31;;;;;;;20.38;8.77;;;;;;;;;;8263254;28;20492;-69
2021/03/14 18:01:37;;;;;;;17.38;7.75;;;;;;;;;;8261621;28;20142;-70
2021/03/14 18:05:40;;;;;;;17.27;7.07;;;;;;;;;;8263112;28;20348;-69
2021/03/14 18:09:45;;;;;;;19.65;7.50;;;;;;;;;;8262166;28;20495;-71
2021/03/14 18:13:50;;;;;;;18.85;8.13;;;;;;;;;;8260898;28;20069;-70
2021/03/14 18:17:54;;;;;;;37.33;13.07;;;;;;;;;;8259486;28;20379;-71
2021/03/14 18:21:59;;;;;;;28.92;13.23;;;;;;;;;;8259940;28;20480;-70
2021/03/14 18:26:03;;;;;;;28.85;13.27;;;;;;;;;;8260736;28;20456;-70
2021/03/14 18:30:10;;;;;;;26.60;11.57;;;;;;;;;;8260624;28;20049;-70
2021/03/14 18:34:14;;;;;;;21.20;8.23;;;;;;;;;;8259774;28;20476;-71
2021/03/14 18:38:19;;;;;;;29.27;11.13;;;;;;;;;;8260132;28;20510;-71
2021/03/14 18:42:23;;;;;;;27.80;11.50;;;;;;;;;;8259479;28;20470;-70
2021/03/14 18:46:27;;;;;;;29.02;11.52;;;;;;;;;;8260534;28;20447;-70
2021/03/14 18:50:33;;;;;;;27.63;11.02;;;;;;;;;;8261886;28;20403;-70
2021/03/14 18:54:38;;;;;;;37.28;14.02;;;;;;;;;;8261398;28;20581;-69
2021/03/14 18:58:42;;;;;;;28.48;11.98;;;;;;;;;;8259978;28;20451;-70
2021/03/14 19:02:47;;;;;;;147.45;37.20;;;;;;;;;;8259749;28;20041;-70
2021/03/14 19:06:51;;;;;;;92.28;31.20;;;;;;;;;;8260291;28;20494;-69
2021/03/14 19:10:55;;;;;;;52.03;19.50;;;;;;;;;;8259741;28;20383;-69
2021/03/14 19:15:00;;;;;;;23.98;11.57;;;;;;;;;;8258994;28;20382;-69
2021/03/14 19:19:05;;;;;;;35.15;16.02;;;;;;;;;;8260308;28;20388;-69
2021/03/14 19:23:10;;;;;;;35.88;17.20;;;;;;;;;;8261678;28;20070;-69
2021/03/14 19:27:15;;;;;;;55.10;26.45;;;;;;;;;;8259089;28;20053;-70
2021/03/14 19:31:20;;;;;;;30.83;14.02;;;;;;;;;;8259067;28;20462;-70
2021/03/14 19:35:25;;;;;;;37.05;17.10;;;;;;;;;;8260355;28;20362;-70
2021/03/14 19:39:29;;;;;;;31.67;15.52;;;;;;;;;;8258551;28;20057;-71
2021/03/14 19:43:34;;;;;;;39.78;16.80;;;;;;;;;;8258260;28;20363;-69
2021/03/14 19:47:38;;;;;;;45.20;19.63;;;;;;;;;;8257803;28;20455;-69
2021/03/14 19:51:43;;;;;;;52.70;19.42;;;;;;;;;;8258287;28;20448;-69
2021/03/14 19:55:48;;;;;;;54.10;24.33;;;;;;;;;;8257775;28;20523;-69
2021/03/14 19:59:52;;;;;;;68.15;26.10;;;;;;;;;;8254714;28;20084;-71
2021/03/14 20:03:59;;;;;;;80.90;32.95;;;;;;;;;;8255054;28;20360;-71
2021/03/14 20:08:03;;;;;;;83.22;30.75;;;;;;;;;;8259277;28;20461;-70
2021/03/14 20:12:09;;;;;;;59.08;21.30;;;;;;;;;;8256226;28;20479;-70
2021/03/14 20:16:14;;;;;;;55.72;19.63;;;;;;;;;;8257724;28;20415;-70
2021/03/14 20:20:30;;;;;;;71.43;22.50;;;;;;;;;;8247601;28;20490;-70
2021/03/14 20:24:53;;;;;;;138.57;38.20;;;;;;;;;;8220648;28;20071;-70
2021/03/14 20:28:58;;;;;;;44.88;17.92;;;;;;;;;;8252568;28;20466;-70
2021/03/14 20:33:03;;;;;;;128.48;33.85;;;;;;;;;;8256084;28;20056;-71
2021/03/14 20:37:07;;;;;;;220.32;53.25;;;;;;;;;;8256573;28;20380;-70
2021/03/14 20:41:12;;;;;;;221.13;55.65;;;;;;;;;;8254722;28;20383;-70
2021/03/14 20:45:17;;;;;;;204.68;47.90;;;;;;;;;;8255550;28;20486;-71
2021/03/14 20:49:21;;;;;;;110.95;33.55;;;;;;;;;;8250847;28;20049;-71
2021/03/14 20:53:24;;;;;;;81.75;26.05;;;;;;;;;;8259923;28;20444;-70
2021/03/14 20:57:28;;;;;;;61.63;21.23;;;;;;;;;;8254842;28;20467;-70
2021/03/14 21:01:34;;;;;;;121.95;34.25;;;;;;;;;;8260151;28;20079;-70
2021/03/14 21:05:40;;;;;;;75.45;24.77;;;;;;;;;;8263120;28;20041;-71
2021/03/14 21:09:44;;;;;;;66.35;23.48;;;;;;;;;;8264870;28;20443;-70
2021/03/14 21:13:48;;;;;;;49.58;18.05;;;;;;;;;;8262936;28;20478;-70
2021/03/14 21:17:55;;;;;;;43.50;17.60;;;;;;;;;;8262630;28;20497;-70
2021/03/14 21:21:59;;;;;;;37.33;15.63;;;;;;;;;;8262858;28;20601;-69
2021/03/14 21:26:05;;;;;;;38.20;13.48;;;;;;;;;;8263872;28;20071;-70
2021/03/14 21:30:10;;;;;;;40.45;14.65;;;;;;;;;;8262023;28;20499;-70
2021/03/14 21:34:18;;;;;;;37.47;15.43;;;;;;;;;;8263246;28;20391;-69
2021/03/14 21:38:23;;;;;;;51.33;16.83;;;;;;;;;;8262814;28;20395;-70
2021/03/14 21:42:28;;;;;;;53.10;18.23;;;;;;;;;;8262761;28;20383;-70
2021/03/14 21:46:32;;;;;;;56.40;19.67;;;;;;;;;;8262823;28;20467;-69
2021/03/14 21:50:37;;;;;;;59.83;20.60;;;;;;;;;;8261825;28;20448;-70
2021/03/14 21:54:42;;;;;;;60.30;20.35;;;;;;;;;;8261436;28;20344;-69
2021/03/14 21:58:50;;;;;;;41.60;16.27;;;;;;;;;;8262399;28;20460;-70
2021/03/14 22:02:56;;;;;;;44.85;17.50;;;;;;;;;;8261229;28;20364;-70
2021/03/14 22:07:01;;;;;;;49.03;18.85;;;;;;;;;;8262241;28;20384;-69
2021/03/14 22:11:06;;;;;;;54.30;18.55;;;;;;;;;;8259240;28;20387;-69
2021/03/14 22:15:11;;;;;;;97.70;29.67;;;;;;;;;;8262714;28;20370;-70
2021/03/14 22:19:15;;;;;;;166.02;49.60;;;;;;;;;;8262905;28;20348;-69
2021/03/14 22:23:21;;;;;;;135.18;42.97;;;;;;;;;;8257092;28;20455;-69
2021/03/14 22:27:24;;;;;;;102.18;32.95;;;;;;;;;;8259020;28;20341;-70
2021/03/14 22:31:29;;;;;;;79.53;28.33;;;;;;;;;;8259806;28;20467;-68
2021/03/14 22:35:33;;;;;;;60.13;22.10;;;;;;;;;;8254541;28;20376;-70
2021/03/14 22:39:37;;;;;;;78.15;26.80;;;;;;;;;;8259989;28;20459;-68
2021/03/14 22:43:41;;;;;;;56.90;21.48;;;;;;;;;;8257399;28;20071;-68
2021/03/14 22:47:47;;;;;;;57.38;19.48;;;;;;;;;;8260537;28;20337;-68
2021/03/14 22:52:01;;;;;;;22.95;10.18;;;;;;;;;;8259713;28;20049;-68
2021/03/14 22:56:06;;;;;;;41.70;13.38;;;;;;;;;;8260467;28;20067;-70
2021/03/14 23:00:20;;;;;;;84.38;24.75;;;;;;;;;;8260420;28;20384;-68
2021/03/14 23:04:25;;;;;;;49.40;18.15;;;;;;;;;;8275719;28;20467;-68
2021/03/14 23:08:37;;;;;;;43.10;15.18;;;;;;;;;;8259684;28;20472;-68
2021/03/14 23:12:41;;;;;;;33.75;13.90;;;;;;;;;;8260258;28;20455;-68
2021/03/14 23:16:46;;;;;;;35.05;12.40;;;;;;;;;;8261254;28;20435;-72
2021/03/14 23:20:50;;;;;;;34.15;13.00;;;;;;;;;;8259813;28;20385;-70
2021/03/14 23:24:55;;;;;;;28.73;12.27;;;;;;;;;;8258391;28;20585;-68
2021/03/14 23:29:13;;;;;;;43.45;15.65;;;;;;;;;;8259773;28;20075;-68
2021/03/14 23:33:25;;;;;;;41.60;15.53;;;;;;;;;;8259095;28;20407;-69
2021/03/14 23:37:30;;;;;;;71.25;23.08;;;;;;;;;;8259153;28;20964;-67
2021/03/14 23:41:36;;;;;;;75.28;24.67;;;;;;;;;;8258096;28;20049;-68
2021/03/14 23:45:41;;;;;;;38.78;16.02;;;;;;;;;;8258289;28;20402;-68
2021/03/14 23:49:45;;;;;;;48.60;19.20;;;;;;;;;;8261637;28;20455;-68
2021/03/14 23:53:49;;;;;;;113.00;34.60;;;;;;;;;;8258080;28;20521;-68
2021/03/14 23:57:54;;;;;;;37.33;15.90;;;;;;;;;;8258150;28;20482;-68
